Elwood, IN

5:54 AM EST on March 05, 2015 (GMT -0500)
Pipe Creek Township Alexandria/Frankton | Change Station
CLOSE
Current Station
Personal Weather Station
Location: Alexandria, IN
Elevation: 860 ft
Nearby Weather Stations

Elev 860 ft 40.25 °N, 85.75 °W | Updated 7 minutes ago

Mostly Cloudy
Mostly Cloudy
15.4 °F
Feels Like 15 °F
N
2.7
Wind Variable Wind from NW

Today
High -- | Low -- °F
--% Chance of Precip.
Yesterday
High -- | Low -- °F
Precip. -- in
7:11 AM 6:39 PM
Full, 100% visible
Pressure 30.32 in
Visibility 7.0 miles
Clouds Overcast 3600 ft
Windchill 15 °F
Dew Point 9 °F
Humidity 74%
Rainfall in
Snow Depth Not available.
UV 0 out of 12
Pollen .70 out of 12
Air Quality Not available.
Flu Activity Not available.
METAR KMZZ 051035Z AUTO 03010KT 7SM OVC036 M09/M15 A3032 RMK AO2 T10881150

More Conditions Fewer Conditions

Pressure 30.32 in
Visibility 7.0 miles
Clouds Overcast 3600 ft
Windchill 15 °F
Dew Point 9 °F
Humidity 74%
Rainfall in
Snow Depth Not available.
UV 0 out of 12
Pollen .70 out of 12
Air Quality Not available.
Flu Activity Not available.
METAR KMZZ 051035Z AUTO 03010KT 7SM OVC036 M09/M15 A3032 RMK AO2 T10881150

More Conditions Fewer Conditions

10-Day Weather Forecast

Almanac

Astronomy

Mar. 05, 2015 Rise Set
Actual Time
Civil Twilight
Nautical Twilight
Astronomical Twilight
Moon
Length of Visible Light
Length of Day
Tomorrow will be .
, % of the Moon is Illuminated

Today's Extremes

State Highs State Lows

Community

WunderPhotos

Upload Photos

1,802,714 photos uploaded!

WunderBlogs® & News

Nearby

Air Quality

  Air Quality AQ Index Pollutant
Not available.

Snow Depth

Station Depth Elevation

Earthquake Activity

City Distance Mag. Time & Date
Minimum magnitude displayed is 2.5.

Coastal Water Temperatures

Place Temperature

Nearby Weather Stations